Aérodrome :
LOGIN :

S'inscrire | Disclaimer

   EN    FR    IT 

 










Légende :    VFR   VFR Marginal   IFR   IFR Intensif   IFR Très Intensif
Visi : 
Plafond : 
>= 8 km
>= 3000ft
5 à 8 km
1000 à 3000 ft
1500m à 5 km
500 à 1000 ft
800 à 1500m
200 à 500 ft
< 800m
< 200 ft
Symboles :   Orages  Brouillard  Fortes neiges  Fortes précipitations  Vent > 20 kt
SIGMETs :   Divers  Orages  Givrage  Turbulence  Onde Orograph.  Cendres Volcan.






- Altitude de l'aérodrome : 284 ft


EGUW - RAF Wattisham

DERNIER METAR :
  • 031850Z 01015KT 9999 FEW025 BKN080 14/09 Q1007 BECMG SCT022 RMK BLU BECMG WHT

METARs EXPIRÉS :
  • 031820Z 36013KT 9999 FEW030 BKN080 14/08 Q1007 NOSIG RMK BLU BLU
  • 031750Z 36012KT 9999 FEW032 BKN100 15/08 Q1007 NOSIG RMK BLU BLU
  • 031722Z 36014KT 9999 FEW032 BKN100 16/09 Q1006 NOSIG RMK BLU BLU
  • 031650Z 01014KT 9999 FEW032 BKN100 16/08 Q1006 NOSIG RMK BLU BLU
  • 031621Z 01014KT 9999 FEW040 BKN120 18/09 Q1007 NOSIG RMK BLU BLU

TAF TAF EGUW
Valide du 03 à 18h jusqu'au 04 à 02h UTC


031638Z 0318/0402 35012KT 9999 SCT030
TEMPO 0320/0402 7000 -RA BKN007
PROB30
TEMPO 0400/0402 BKN006



MET'MAP, la Météo Aéronautique d'un coup d'oeil ! - Copyright ORBIFLY Décembre 2007 - Disclaimer

ORBIFLY MET'MAP TEAM :

Programmation & Développement : Alexandra Zaïnal
Sur une idée originale de : Baudouin d'Aumeries
Assistance à la programmation : Marc-Olivier Méhu
Soutien technique & logistique : Manuel Goepfert

Contact : metmap@orbifly.com




SOURCES & CREDITS :

   NOAA